Time;durP1;ratioP1;P1;durP2;ratioP2;P2;SDS_P1;SDS_P2;PMS_P1;PMS_P2;Temp;Humidity;BMP_temperature;BMP_pressure;BME280_temperature;BME280_humidity;BME280_pressure;Samples;Min_cycle;Max_cycle;Signal;HPM_P1;HPM_P2
2022/12/29 00:00:43;;;;;;;8.30;2.63;;;8.80;99.90;;;9.19;100.00;97408.41;5045993;28;20473;-79
2022/12/29 00:03:12;;;;;;;4.10;2.37;;;8.90;99.90;;;9.19;100.00;97411.03;5044376;28;20534;-78
2022/12/29 00:05:43;;;;;;;5.93;2.70;;;8.80;99.90;;;9.19;100.00;97403.19;5042396;28;20488;-79
2022/12/29 00:08:15;;;;;;;3.83;2.47;;;8.80;99.90;;;9.18;100.00;97406.78;5055745;28;20497;-79
2022/12/29 00:10:44;;;;;;;4.17;2.40;;;8.80;99.90;;;9.19;100.00;97399.78;5050477;28;20500;-79
2022/12/29 00:16:02;;;;;;;3.50;3.20;;;8.80;99.90;;;9.19;100.00;97403.19;5052350;28;20461;-79
2022/12/29 00:18:33;;;;;;;3.53;2.53;;;8.80;99.90;;;9.21;100.00;97401.19;5055524;28;21339;-79
2022/12/29 00:35:11;;;;;;;6.57;2.17;;;8.90;99.90;;;9.26;100.00;97398.81;5053658;28;20461;-78
2022/12/29 00:46:06;;;;;;;4.30;2.43;;;8.80;99.90;;;9.29;100.00;97387.16;5050933;28;20469;-78
2022/12/29 00:51:28;;;;;;;2.37;2.00;;;8.90;99.90;;;9.35;100.00;97387.19;5037065;28;20514;-79
2022/12/29 00:53:57;;;;;;;3.83;1.80;;;9.00;99.90;;;9.35;100.00;97381.16;5051951;28;20473;-79
2022/12/29 00:56:28;;;;;;;2.27;2.07;;;8.90;99.90;;;9.36;100.00;97378.38;5053532;28;20491;-78
2022/12/29 00:59:01;;;;;;;1.50;1.40;;;8.90;99.90;;;9.38;100.00;97380.78;5053911;28;20908;-78
2022/12/29 01:01:31;;;;;;;3.50;1.70;;;9.00;99.90;;;9.36;100.00;97367.94;5050555;28;20718;-79
2022/12/29 01:04:01;;;;;;;3.07;1.87;;;8.90;99.90;;;9.37;100.00;97368.75;5050287;28;20531;-78
2022/12/29 01:06:33;;;;;;;2.40;1.80;;;9.00;99.90;;;9.41;100.00;97365.53;5051400;28;21316;-78
2022/12/29 01:11:52;;;;;;;4.33;2.10;;;9.00;99.90;;;9.42;100.00;97358.50;5049589;28;20473;-78
2022/12/29 01:14:23;;;;;;;4.00;1.97;;;9.00;99.90;;;9.44;100.00;97359.91;5050022;28;20504;-79
2022/12/29 01:16:53;;;;;;;2.97;1.70;;;9.00;99.90;;;9.43;100.00;97350.50;5053107;28;20568;-78
2022/12/29 01:19:23;;;;;;;3.00;1.90;;;9.10;99.90;;;9.48;100.00;97358.53;5046264;28;20991;-79
2022/12/29 01:21:53;;;;;;;1.83;1.53;;;9.10;99.90;;;9.44;100.00;97359.91;5050707;28;21046;-78
2022/12/29 01:24:24;;;;;;;1.83;1.50;;;9.00;99.90;;;9.47;100.00;97346.50;5049459;28;20461;-78
2022/12/29 01:26:55;;;;;;;2.13;1.93;;;9.10;99.90;;;9.49;100.00;97346.28;5048233;28;20488;-78
2022/12/29 01:29:24;;;;;;;2.57;1.70;;;9.20;99.90;;;9.50;100.00;97346.09;5048672;28;22342;-79
2022/12/29 01:31:55;;;;;;;4.40;1.60;;;9.20;99.90;;;9.52;100.00;97351.09;5050680;28;20883;-79
2022/12/29 01:34:25;;;;;;;4.97;1.97;;;9.20;99.90;;;9.52;100.00;97345.88;5052860;28;20472;-79
2022/12/29 01:36:55;;;;;;;3.93;1.43;;;9.10;99.90;;;9.55;100.00;97346.28;5051172;28;20488;-79
2022/12/29 01:39:25;;;;;;;2.00;1.40;;;9.20;99.90;;;9.58;100.00;97334.66;5050364;28;20549;-79
2022/12/29 01:41:58;;;;;;;2.10;1.70;;;9.20;99.90;;;9.56;100.00;97332.25;5048567;28;20958;-78
2022/12/29 01:44:53;;;;;;;1.87;1.50;;;9.20;99.90;;;9.58;100.00;97334.66;5047387;28;20486;-78
2022/12/29 01:47:35;;;;;;;2.50;1.70;;;9.20;99.90;;;9.58;100.00;97332.03;5049295;28;21273;-79
2022/12/29 01:50:11;;;;;;;2.57;1.50;;;9.20;99.90;;;9.56;100.00;97326.22;5047197;28;20462;-78
2022/12/29 01:52:50;;;;;;;3.13;2.07;;;9.20;99.90;;;9.57;100.00;97326.03;5049751;28;20468;-79
2022/12/29 01:55:20;;;;;;;2.97;2.00;;;9.20;99.90;;;9.56;100.00;97319.22;5049903;28;20966;-79
2022/12/29 01:57:56;;;;;;;1.47;1.30;;;9.20;99.90;;;9.56;100.00;97329.66;5047577;28;20547;-79
2022/12/29 02:00:26;;;;;;;2.90;1.63;;;9.20;99.90;;;9.60;100.00;97327.44;5047662;28;20521;-78
2022/12/29 02:02:57;;;;;;;4.53;2.10;;;9.20;99.90;;;9.57;100.00;97320.00;5051319;28;20919;-78
2022/12/29 02:05:34;;;;;;;6.37;1.60;;;9.20;99.90;;;9.63;100.00;97321.00;5050873;28;20461;-79
2022/12/29 02:08:04;;;;;;;3.20;1.70;;;9.30;99.90;;;9.59;100.00;97321.41;5049255;28;20495;-79
2022/12/29 02:10:36;;;;;;;6.20;1.57;;;9.20;99.90;;;9.61;100.00;97324.63;5051361;28;20469;-79
2022/12/29 02:13:07;;;;;;;1.60;1.50;;;9.30;99.90;;;9.65;100.00;97317.19;5050637;28;20548;-78
2022/12/29 02:15:50;;;;;;;3.60;1.80;;;9.30;99.90;;;9.65;100.00;97311.97;5048101;28;20457;-78
2022/12/29 02:18:38;;;;;;;1.90;1.70;;;9.30;99.90;;;9.62;100.00;97309.75;5050645;28;20496;-79
2022/12/29 02:21:51;;;;;;;2.93;1.70;;;9.30;99.90;;;9.64;100.00;97326.03;5050853;28;20457;-79
2022/12/29 02:25:16;;;;;;;4.07;1.73;;;9.30;99.90;;;9.62;100.00;97304.53;5047485;28;20468;-79
2022/12/29 02:27:58;;;;;;;1.37;1.27;;;9.30;99.90;;;9.61;100.00;97310.78;5019011;28;20464;-79
2022/12/29 02:30:54;;;;;;;1.40;1.30;;;9.20;99.90;;;9.63;100.00;97300.94;5049965;28;20570;-79
2022/12/29 02:33:58;;;;;;;1.40;1.30;;;9.20;99.90;;;9.63;100.00;97295.72;5052930;28;20457;-78
2022/12/29 02:36:41;;;;;;;1.30;1.20;;;9.30;99.90;;;9.64;100.00;97296.53;5054522;28;20462;-79
2022/12/29 02:39:22;;;;;;;2.80;1.50;;;9.20;99.90;;;9.65;100.00;97280.66;5052693;28;20540;-78
2022/12/29 02:42:04;;;;;;;2.53;1.60;;;9.30;99.90;;;9.66;100.00;97292.72;5053830;28;20468;-79
2022/12/29 02:44:51;;;;;;;2.77;1.53;;;9.30;99.90;;;9.66;100.00;97291.91;5052900;28;20456;-79
2022/12/29 02:47:35;;;;;;;3.33;1.60;;;9.20;99.90;;;9.71;100.00;97289.50;5054331;28;20461;-78
2022/12/29 02:50:15;;;;;;;1.87;1.50;;;9.30;99.90;;;9.70;100.00;97274.84;5049583;28;20561;-78
2022/12/29 02:52:53;;;;;;;2.90;1.70;;;9.30;99.90;;;9.69;100.00;97281.06;5052586;28;20830;-79
2022/12/29 02:55:21;;;;;;;2.23;1.63;;;9.30;99.90;;;9.71;100.00;97277.25;5052814;28;20469;-79
2022/12/29 02:58:16;;;;;;;1.57;1.47;;;9.30;99.90;;;9.70;100.00;97282.66;5048454;28;20499;-79
2022/12/29 03:01:04;;;;;;;3.83;1.60;;;9.30;99.90;;;9.72;100.00;97288.50;5049313;28;20471;-79
2022/12/29 03:04:00;;;;;;;1.60;1.33;;;9.30;99.90;;;9.70;100.00;97286.09;5050132;28;20458;-79
2022/12/29 03:06:51;;;;;;;1.40;1.30;;;9.30;99.90;;;9.75;100.00;97270.63;5048687;28;20462;-79
2022/12/29 03:09:35;;;;;;;2.77;2.07;;;9.40;99.90;;;9.72;100.00;97272.84;5050694;28;20496;-79
2022/12/29 03:12:24;;;;;;;6.60;1.70;;;9.30;99.90;;;9.74;100.00;97279.47;5048682;28;20470;-79
2022/12/29 03:18:05;;;;;;;1.97;1.40;;;9.40;99.90;;;9.80;100.00;97270.03;5046061;28;20547;-79
2022/12/29 03:20:46;;;;;;;2.80;1.70;;;9.40;99.90;;;9.80;100.00;97264.78;5051826;28;20468;-79
2022/12/29 03:23:18;;;;;;;2.43;1.40;;;9.40;99.90;;;9.82;100.00;97260.19;5048459;28;20464;-78
2022/12/29 03:25:54;;;;;;;1.87;1.57;;;9.40;99.90;;;9.81;100.00;97271.63;5050913;28;20571;-78
2022/12/29 03:28:30;;;;;;;4.00;1.43;;;9.40;99.90;;;9.81;100.00;97269.03;5048207;28;20478;-79
2022/12/29 03:31:01;;;;;;;8.47;1.43;;;9.40;99.90;;;9.81;100.00;97266.41;5048344;28;20456;-79
2022/12/29 03:33:33;;;;;;;3.77;1.60;;;9.40;99.90;;;9.78;100.00;97261.59;5045416;28;20457;-79
2022/12/29 03:36:10;;;;;;;2.70;1.57;;;9.40;99.90;;;9.80;100.00;97270.03;5049823;28;20548;-78
2022/12/29 03:38:46;;;;;;;2.77;1.90;;;9.30;99.90;;;9.79;100.00;97253.53;5047006;28;20580;-78
2022/12/29 03:41:22;;;;;;;1.50;1.40;;;9.40;99.90;;;9.75;100.00;97252.38;5050905;28;21097;-79
2022/12/29 03:43:53;;;;;;;4.37;1.97;;;9.30;99.90;;;9.76;100.00;97235.69;5052117;28;20461;-79
2022/12/29 03:46:23;;;;;;;4.73;2.17;;;9.30;99.90;;;9.77;100.00;97258.19;5053013;28;20492;-79
2022/12/29 03:48:54;;;;;;;10.27;2.07;;;9.40;99.90;;;9.77;100.00;97252.16;5046000;28;20514;-78
2022/12/29 03:51:25;;;;;;;2.13;1.80;;;9.40;99.90;;;9.79;100.00;97250.94;5048273;28;20509;-78
2022/12/29 03:53:55;;;;;;;3.30;2.20;;;9.50;99.90;;;9.78;100.00;97251.16;5051990;28;20453;-78
2022/12/29 03:56:24;;;;;;;6.17;2.10;;;9.40;99.90;;;9.76;100.00;97250.53;5052317;28;20523;-79
2022/12/29 03:58:55;;;;;;;4.30;2.27;;;9.40;99.90;;;9.79;100.00;97256.16;5046569;28;21225;-79
2022/12/29 04:01:25;;;;;;;2.80;1.63;;;9.40;99.90;;;9.77;100.00;97246.94;5049081;28;20461;-79
2022/12/29 04:03:54;;;;;;;2.47;1.80;;;9.40;99.90;;;9.73;100.00;97259.56;5050664;28;20536;-79
2022/12/29 04:06:27;;;;;;;6.50;2.30;;;9.30;99.90;;;9.75;100.00;97257.59;5048757;28;20550;-79
2022/12/29 04:08:57;;;;;;;5.03;3.10;;;9.30;99.90;;;9.73;100.00;97256.97;5050262;28;20479;-79
2022/12/29 04:11:27;;;;;;;4.30;1.70;;;9.30;99.90;;;9.77;100.00;97249.53;5053534;28;20907;-79
2022/12/29 04:14:01;;;;;;;3.20;1.50;;;9.40;99.90;;;9.76;100.00;97248.72;5047059;28;20457;-79
2022/12/29 04:16:31;;;;;;;3.10;2.10;;;9.40;99.90;;;9.77;100.00;97249.53;5047729;28;20998;-78
2022/12/29 04:19:02;;;;;;;12.43;2.10;;;9.40;99.90;;;9.77;100.00;97246.94;5052495;28;20949;-78
2022/12/29 04:21:32;;;;;;;10.93;2.10;;;9.40;99.90;;;9.75;100.00;97254.16;5048067;28;20871;-79
2022/12/29 04:24:01;;;;;;;4.97;2.00;;;9.40;99.90;;;9.75;100.00;97247.16;5049679;28;20570;-78
2022/12/29 04:26:31;;;;;;;3.03;1.63;;;9.30;99.90;;;9.77;100.00;97250.34;5054168;28;20476;-79
2022/12/29 04:29:02;;;;;;;3.60;1.67;;;9.40;99.90;;;9.76;100.00;97242.69;5053336;28;20448;-78
2022/12/29 04:31:31;;;;;;;3.73;1.60;;;9.40;99.90;;;9.74;100.00;97239.50;5051811;28;20564;-78
2022/12/29 04:34:00;;;;;;;3.10;1.90;;;9.30;99.90;;;9.72;100.00;97236.31;5047592;28;20456;-78
2022/12/29 04:36:30;;;;;;;3.17;1.73;;;9.30;99.90;;;9.74;100.00;97244.72;5046239;28;21217;-78
2022/12/29 04:39:01;;;;;;;1.93;1.70;;;9.40;99.90;;;9.70;100.00;97239.09;5043815;28;20498;-78
2022/12/29 04:41:31;;;;;;;3.43;1.60;;;9.30;99.90;;;9.68;100.00;97241.13;5048717;28;20475;-78
2022/12/29 04:44:01;;;;;;;4.73;1.80;;;9.30;99.90;;;9.68;100.00;97235.09;5053749;28;20590;-78
2022/12/29 04:46:32;;;;;;;7.87;1.90;;;9.20;99.90;;;9.67;100.00;97229.06;5047515;28;20853;-78
2022/12/29 04:49:07;;;;;;;2.67;2.30;;;9.20;99.90;;;9.69;100.00;97234.06;5046233;28;20834;-79
2022/12/29 04:51:38;;;;;;;5.80;1.87;;;9.30;99.90;;;9.67;100.00;97238.69;5048064;28;20455;-79
2022/12/29 04:54:09;;;;;;;2.20;1.77;;;9.20;99.90;;;9.67;100.00;97247.34;5049682;28;20605;-78
2022/12/29 04:56:38;;;;;;;2.23;1.57;;;9.20;99.90;;;9.71;100.00;97237.28;5048240;28;20465;-79
2022/12/29 04:59:06;;;;;;;4.30;2.00;;;9.30;99.90;;;9.68;100.00;97235.09;5049626;28;20507;-78
2022/12/29 05:01:37;;;;;;;4.80;2.30;;;9.30;99.90;;;9.69;100.00;97242.72;5044133;28;20555;-78
2022/12/29 05:04:08;;;;;;;10.00;2.37;;;9.30;99.90;;;9.72;100.00;97234.47;5048518;28;20457;-79
2022/12/29 05:06:38;;;;;;;2.27;1.80;;;9.30;99.90;;;9.74;100.00;97227.25;5049024;28;20509;-78
2022/12/29 05:09:09;;;;;;;2.23;1.60;;;9.40;99.90;;;9.73;100.00;97232.66;5051515;28;20456;-79
2022/12/29 05:11:40;;;;;;;2.73;2.40;;;9.30;99.90;;;9.71;100.00;97230.28;5049826;28;20468;-78
2022/12/29 05:14:09;;;;;;;1.90;1.70;;;9.30;99.90;;;9.70;100.00;97243.50;5043088;28;20879;-79
2022/12/29 05:16:40;;;;;;;1.90;1.60;;;9.30;99.90;;;9.72;100.00;97225.88;5050959;28;20508;-79
2022/12/29 05:19:09;;;;;;;2.70;1.70;;;9.40;99.90;;;9.72;100.00;97228.47;5050952;28;20484;-79
2022/12/29 05:21:39;;;;;;;2.23;1.87;;;9.40;99.90;;;9.73;100.00;97222.22;5046384;28;20476;-79
2022/12/29 05:24:10;;;;;;;2.50;2.30;;;9.40;99.90;;;9.73;100.00;97214.38;5054207;28;20542;-79
2022/12/29 05:26:39;;;;;;;4.93;1.90;;;9.40;99.90;;;9.74;100.00;97234.28;5049270;28;20476;-78
2022/12/29 05:29:08;;;;;;;3.10;1.83;;;9.30;99.90;;;9.73;100.00;97237.88;5052481;28;20470;-78
2022/12/29 05:31:37;;;;;;;2.00;1.80;;;9.30;99.90;;;9.72;100.00;97223.25;5047430;28;20555;-78
2022/12/29 05:34:06;;;;;;;2.40;1.73;;;9.30;99.90;;;9.76;100.00;97229.66;5046229;28;20960;-79
2022/12/29 05:36:36;;;;;;;3.90;2.00;;;9.40;99.90;;;9.74;100.00;97231.66;5048301;28;20500;-79
2022/12/29 05:39:07;;;;;;;3.67;2.10;;;9.30;99.90;;;9.77;100.00;97226.84;5048090;28;20496;-79
2022/12/29 05:41:38;;;;;;;4.40;1.60;;;9.40;99.90;;;9.77;100.00;97232.06;5047683;28;20489;-78
2022/12/29 05:44:08;;;;;;;2.00;1.63;;;9.40;99.90;;;9.77;100.00;97218.22;5042237;28;20472;-79
2022/12/29 05:46:39;;;;;;;3.03;1.40;;;9.40;99.90;;;9.77;100.00;97233.88;5049837;28;20457;-79
2022/12/29 05:49:09;;;;;;;10.97;1.80;;;9.40;99.90;;;9.76;100.00;97224.44;5048216;28;20511;-79
2022/12/29 05:51:39;;;;;;;3.37;1.43;;;9.40;99.90;;;9.76;100.00;97233.06;5053412;28;20552;-79
2022/12/29 05:54:09;;;;;;;7.03;1.50;;;9.40;99.90;;;9.75;100.00;97225.44;5051412;28;20469;-79
2022/12/29 05:56:39;;;;;;;2.63;1.80;;;9.40;99.90;;;9.76;100.00;97237.47;5051175;28;20526;-78
2022/12/29 05:59:08;;;;;;;2.10;1.50;;;9.40;99.90;;;9.72;100.00;97238.91;5053953;28;20480;-79
2022/12/29 06:01:36;;;;;;;3.50;1.67;;;9.30;99.90;;;9.75;100.00;97230.69;5051024;28;20469;-79
2022/12/29 06:04:07;;;;;;;1.80;1.60;;;9.40;99.90;;;9.76;100.00;97227.84;5050810;28;21056;-79
2022/12/29 06:06:36;;;;;;;4.43;1.83;;;9.40;99.90;;;9.76;100.00;97230.44;5047752;28;20867;-79
2022/12/29 06:09:06;;;;;;;1.50;1.40;;;9.40;99.90;;;9.76;100.00;97242.69;5051995;28;20500;-79
2022/12/29 06:11:35;;;;;;;4.80;1.80;;;9.40;99.90;;;9.74;100.00;97247.34;5052282;28;20504;-79
2022/12/29 06:14:06;;;;;;;2.40;1.30;;;9.30;99.90;;;9.73;100.00;97240.50;5053757;28;20461;-78
2022/12/29 06:16:36;;;;;;;1.70;1.60;;;9.40;99.90;;;9.73;100.00;97248.31;5053991;28;20495;-79
2022/12/29 06:19:05;;;;;;;2.00;1.70;;;9.30;99.90;;;9.67;100.00;97246.53;5050455;28;20466;-79
2022/12/29 06:21:34;;;;;;;3.40;1.77;;;9.20;99.90;;;9.67;100.00;97252.56;5050274;28;20469;-75
2022/12/29 06:24:04;;;;;;;5.60;2.00;;;9.20;99.90;;;9.68;100.00;97251.56;5045424;28;20476;-79
2022/12/29 06:26:33;;;;;;;7.73;2.07;;;9.30;99.90;;;9.70;100.00;97246.13;5045767;28;20469;-79
2022/12/29 06:29:03;;;;;;;6.10;1.93;;;9.30;99.90;;;9.69;100.00;97245.31;5048284;28;20471;-79
2022/12/29 06:31:35;;;;;;;7.43;2.20;;;9.30;99.90;;;9.70;100.00;97259.97;5049379;28;20523;-79
2022/12/29 06:34:06;;;;;;;4.30;2.20;;;9.30;99.90;;;9.69;100.00;97263.59;5045597;28;20477;-79
2022/12/29 06:36:38;;;;;;;3.30;2.00;;;9.30;99.90;;;9.67;100.00;97256.97;5047719;28;20552;-79
2022/12/29 06:39:07;;;;;;;3.30;1.80;;;9.30;99.90;;;9.68;100.00;97262.00;5048439;28;20467;-79
2022/12/29 06:41:38;;;;;;;2.20;1.90;;;9.30;99.90;;;9.65;100.00;97248.56;5050391;28;20501;-79
2022/12/29 06:44:07;;;;;;;3.17;2.00;;;9.30;99.90;;;9.66;100.00;97252.75;5049057;28;20464;-79
2022/12/29 06:46:39;;;;;;;3.60;2.30;;;9.20;99.90;;;9.67;100.00;97255.16;5044056;28;20497;-79
2022/12/29 06:49:11;;;;;;;5.10;2.00;;;9.30;99.90;;;9.69;100.00;97257.56;5048879;28;20892;-79
2022/12/29 06:51:41;;;;;;;2.03;1.70;;;9.30;99.90;;;9.68;100.00;97256.78;5046030;28;20495;-79
2022/12/29 06:54:11;;;;;;;2.90;1.90;;;9.30;99.90;;;9.66;100.00;97255.34;5049287;28;21277;-79
2022/12/29 06:56:43;;;;;;;2.87;2.10;;;9.30;99.90;;;9.67;100.00;97259.59;5045719;28;20539;-78
2022/12/29 06:59:14;;;;;;;2.40;1.60;;;9.30;99.90;;;9.67;100.00;97259.59;5045209;28;20497;-78
2022/12/29 07:01:45;;;;;;;4.47;2.00;;;9.30;99.90;;;9.64;100.00;97267.81;5050298;28;20906;-78
2022/12/29 07:04:16;;;;;;;2.13;1.90;;;9.30;99.90;;;9.66;100.00;97263.19;5050615;28;20552;-79
2022/12/29 07:06:46;;;;;;;2.93;2.13;;;9.30;99.90;;;9.66;100.00;97261.38;5050715;28;20460;-78
2022/12/29 07:09:17;;;;;;;2.47;2.10;;;9.30;99.90;;;9.61;100.00;97271.63;5047351;28;20457;-79
2022/12/29 07:11:47;;;;;;;3.07;1.73;;;9.20;99.90;;;9.62;100.00;97288.88;5047804;28;21066;-79
2022/12/29 07:14:16;;;;;;;2.60;1.70;;;9.20;99.90;;;9.64;100.00;97278.25;5047838;28;21029;-79
2022/12/29 07:16:48;;;;;;;4.50;2.00;;;9.30;99.90;;;9.63;100.00;97292.31;5047279;28;24177;-79
2022/12/29 07:19:18;;;;;;;3.47;2.17;;;9.20;99.90;;;9.61;100.00;97276.84;5046460;28;20468;-79
2022/12/29 07:21:49;;;;;;;6.00;2.27;;;9.20;99.90;;;9.64;100.00;97280.88;5049099;28;20498;-78
2022/12/29 07:24:20;;;;;;;6.40;2.17;;;9.30;99.90;;;9.62;100.00;97281.06;5050467;28;20491;-78
2022/12/29 07:26:51;;;;;;;4.23;1.97;;;9.30;99.90;;;9.65;100.00;97292.91;5046984;28;21014;-79
2022/12/29 07:29:22;;;;;;;5.90;2.20;;;9.30;99.90;;;9.62;100.00;97294.09;5048485;28;20460;-79
2022/12/29 07:31:55;;;;;;;4.80;2.40;;;9.30;99.90;;;9.57;100.00;97297.34;5043599;28;20918;-79
2022/12/29 07:34:25;;;;;;;4.80;2.23;;;9.20;99.90;;;9.61;100.00;97298.50;5047124;28;20835;-79
2022/12/29 07:36:54;;;;;;;4.37;2.00;;;9.20;99.90;;;9.65;100.00;97291.09;5045170;28;20461;-78
2022/12/29 07:39:25;;;;;;;1.80;1.67;;;9.30;99.90;;;9.64;100.00;97304.34;5048325;28;20461;-79
2022/12/29 07:41:55;;;;;;;4.50;2.07;;;9.20;99.90;;;9.63;100.00;97300.13;5044527;28;20579;-79
2022/12/29 07:44:33;;;;;;;6.60;2.37;;;9.20;99.90;;;9.66;100.00;97299.72;5046953;28;20882;-79
2022/12/29 07:47:05;;;;;;;5.60;2.20;;;9.20;99.90;;;9.65;100.00;97300.75;5045467;28;20547;-79
2022/12/29 07:49:35;;;;;;;4.43;2.17;;;9.20;99.90;;;9.68;100.00;97297.75;5046816;28;20464;-79
2022/12/29 07:52:05;;;;;;;2.17;1.90;;;9.30;99.90;;;9.66;100.00;97302.34;5046883;28;20461;-79
2022/12/29 07:54:36;;;;;;;5.40;3.13;;;9.20;99.90;;;9.67;100.00;97303.97;5045079;28;20468;-81
2022/12/29 07:57:06;;;;;;;15.93;6.10;;;9.30;99.90;;;9.69;100.00;97307.97;5048248;28;20505;-79
2022/12/29 07:59:36;;;;;;;5.17;2.50;;;9.20;99.90;;;9.67;100.00;97307.38;5048293;28;21032;-78
2022/12/29 08:02:10;;;;;;;4.50;2.50;;;9.30;99.90;;;9.69;100.00;97307.16;5044449;28;20550;-78
2022/12/29 08:04:41;;;;;;;4.03;2.57;;;9.30;99.90;;;9.67;100.00;97309.97;5043284;28;20488;-79
2022/12/29 08:07:16;;;;;;;2.63;2.17;;;9.30;99.90;;;9.72;100.00;97325.06;5045658;28;20500;-79
2022/12/29 08:09:46;;;;;;;3.30;2.00;;;9.30;99.90;;;9.71;100.00;97328.66;5046033;28;20469;-79
2022/12/29 08:12:15;;;;;;;4.37;2.47;;;9.40;99.90;;;9.70;100.00;97327.84;5052687;28;20986;-79
2022/12/29 08:14:44;;;;;;;4.23;2.30;;;9.30;99.90;;;9.69;100.00;97335.88;5045749;28;20453;-79
2022/12/29 08:17:16;;;;;;;10.93;3.00;;;9.30;99.90;;;9.69;100.00;97338.47;5045305;28;20595;-79
2022/12/29 08:19:45;;;;;;;3.80;2.60;;;9.30;99.90;;;9.72;100.00;97340.72;5046106;28;20492;-78
2022/12/29 08:22:15;;;;;;;6.03;2.30;;;9.30;99.90;;;9.73;100.00;97347.53;5044491;28;21552;-79
2022/12/29 08:24:46;;;;;;;3.60;2.40;;;9.30;99.90;;;9.71;100.00;97344.31;5041854;28;20481;-78
2022/12/29 08:27:21;;;;;;;5.57;3.47;;;9.30;99.90;;;9.74;100.00;97354.38;5048672;28;20467;-74
2022/12/29 08:29:52;;;;;;;4.17;2.07;;;9.30;99.90;;;9.73;100.00;97364.00;5044686;28;20457;-79
2022/12/29 08:32:22;;;;;;;2.70;2.50;;;9.40;99.90;;;9.76;100.00;97368.00;5052072;28;25091;-79
2022/12/29 08:34:52;;;;;;;5.57;2.33;;;9.40;99.90;;;9.75;100.00;97353.38;5050092;28;20453;-78
2022/12/29 08:37:25;;;;;;;4.40;2.13;;;9.40;99.90;;;9.74;100.00;97351.75;5049431;28;20493;-78
2022/12/29 08:40:03;;;;;;;11.30;2.57;;;9.40;99.90;;;9.77;100.00;97354.78;5051377;28;20463;-78
2022/12/29 08:42:33;;;;;;;2.77;1.70;;;9.40;99.90;;;9.75;100.00;97362.03;5055751;28;20496;-79
2022/12/29 08:45:03;;;;;;;2.70;2.50;;;9.30;99.90;;;9.77;100.00;97359.19;5050657;28;20461;-79
2022/12/29 08:47:34;;;;;;;1.20;1.00;;;9.30;99.90;;;9.78;100.00;97355.59;5049304;28;20477;-78
2022/12/29 08:50:03;;;;;;;2.40;1.57;;;9.40;99.90;;;9.77;100.00;97353.97;5051653;28;20535;-79
2022/12/29 08:52:32;;;;;;;3.80;1.73;;;9.40;99.90;;;9.76;100.00;97374.03;5048450;28;20542;-79
2022/12/29 08:55:02;;;;;;;1.80;1.27;;;9.40;99.90;;;9.72;100.00;97367.59;5047820;28;20501;-79
2022/12/29 08:57:31;;;;;;;5.90;1.20;;;9.30;99.90;;;9.72;100.00;97372.06;5051165;28;20467;-79
2022/12/29 09:00:02;;;;;;;1.47;1.37;;;9.30;99.90;;;9.72;100.00;97379.88;5048876;28;20471;-78
2022/12/29 09:02:33;;;;;;;2.10;1.00;;;9.30;99.90;;;9.67;100.00;97397.94;5050988;28;20545;-79
2022/12/29 09:05:03;;;;;;;0.97;0.90;;;9.20;99.90;;;9.69;100.00;97408.97;5048320;28;20476;-79
2022/12/29 09:07:33;;;;;;;1.33;0.90;;;9.20;99.90;;;9.58;100.00;97392.88;5049923;28;20493;-80
2022/12/29 09:10:02;;;;;;;1.23;0.87;;;9.20;99.90;;;9.58;100.00;97382.44;5043414;28;20500;-79
2022/12/29 09:12:31;;;;;;;1.30;0.80;;;9.20;99.90;;;9.50;100.00;97384.44;5050830;28;20465;-78
2022/12/29 09:15:07;;;;;;;1.37;0.90;;;9.10;99.90;;;9.50;100.00;97389.66;5050751;28;20470;-79
2022/12/29 09:17:47;;;;;;;2.67;1.00;;;9.10;99.90;;;9.54;100.00;97383.06;5050828;28;20511;-78
2022/12/29 09:20:18;;;;;;;1.10;0.80;;;9.20;99.90;;;9.54;100.00;97386.44;5048937;28;20487;-76
2022/12/29 09:22:49;;;;;;;2.27;1.23;;;9.20;99.90;;;9.48;100.00;97376.78;5047250;28;20480;-79
2022/12/29 09:25:17;;;;;;;0.93;0.83;;;9.10;99.90;;;9.51;100.00;97378.22;5050106;28;20558;-79
2022/12/29 09:27:47;;;;;;;1.30;0.73;;;9.20;99.90;;;9.51;100.00;97375.63;5051083;28;20462;-75
2022/12/29 09:30:17;;;;;;;2.20;1.13;;;9.10;99.90;;;9.54;100.00;97383.81;5045716;28;20523;-80
2022/12/29 09:32:47;;;;;;;0.87;0.70;;;9.20;99.90;;;9.56;100.00;97392.28;5049441;28;20498;-78
2022/12/29 09:35:23;;;;;;;3.33;0.80;;;9.20;99.90;;;9.56;100.00;97389.69;5052808;28;21038;-79
2022/12/29 09:37:52;;;;;;;1.33;1.00;;;9.20;99.90;;;9.54;100.00;97389.03;5056010;28;20503;-79
2022/12/29 09:40:30;;;;;;;1.77;1.00;;;9.20;99.90;;;9.56;100.00;97404.53;5052909;28;20464;-79
2022/12/29 09:43:33;;;;;;;4.80;1.10;;;9.20;99.90;;;9.59;100.00;97409.34;5053280;28;20487;-78
2022/12/29 09:46:22;;;;;;;1.97;0.90;;;9.20;99.90;;;9.55;100.00;97408.94;5052403;28;21185;-78
2022/12/29 09:49:05;;;;;;;1.90;0.80;;;9.20;99.90;;;9.59;100.00;97391.06;5054993;28;20454;-79
2022/12/29 09:51:40;;;;;;;2.60;1.83;;;9.20;99.90;;;9.62;100.00;97393.28;5054084;28;20456;-79
2022/12/29 09:54:40;;;;;;;2.07;0.90;;;9.20;99.90;;;9.63;100.00;97407.16;5054687;28;20522;-79
2022/12/29 09:57:24;;;;;;;1.47;1.20;;;9.20;99.90;;;9.66;100.00;97409.38;5056061;28;20464;-79
2022/12/29 10:00:00;;;;;;;2.93;0.90;;;9.30;99.90;;;9.65;100.00;97423.44;5057125;28;20453;-79
2022/12/29 10:02:40;;;;;;;2.23;1.33;;;9.20;99.90;;;9.70;100.00;97421.03;5055797;28;20499;-79
2022/12/29 10:05:30;;;;;;;2.00;1.00;;;9.30;99.90;;;9.72;100.00;97419.81;5056761;28;20468;-78
2022/12/29 10:08:24;;;;;;;2.27;1.20;;;9.30;99.90;;;9.73;100.00;97415.41;5054351;28;20514;-78
2022/12/29 10:10:58;;;;;;;2.10;1.10;;;9.40;99.90;;;9.73;100.00;97421.44;5051606;28;20546;-79
2022/12/29 10:13:44;;;;;;;1.77;1.20;;;9.30;99.90;;;9.74;100.00;97417.84;5051480;28;20453;-79
2022/12/29 10:16:20;;;;;;;3.23;1.10;;;9.30;99.90;;;9.70;100.00;97416.63;5056550;28;20479;-80
2022/12/29 10:19:17;;;;;;;2.87;1.20;;;9.30;99.90;;;9.70;100.00;97423.63;5053298;28;20975;-79
2022/12/29 10:22:10;;;;;;;1.57;1.00;;;9.30;99.90;;;9.72;100.00;97411.22;5051920;28;20528;-79
2022/12/29 10:24:41;;;;;;;2.80;1.13;;;9.30;99.90;;;9.77;100.00;97421.84;5051817;28;20485;-78
2022/12/29 10:27:15;;;;;;;1.87;1.10;;;9.40;99.90;;;9.79;100.00;97418.03;5051926;28;20811;-79
2022/12/29 10:29:51;;;;;;;3.10;1.10;;;9.40;99.90;;;9.82;100.00;97420.25;5050699;28;20899;-79
2022/12/29 10:32:33;;;;;;;4.30;1.23;;;9.50;99.90;;;9.85;100.00;97421.69;5050901;28;20479;-78
2022/12/29 10:35:13;;;;;;;1.67;1.13;;;9.50;99.90;;;9.84;100.00;97433.13;5055528;28;20464;-79
2022/12/29 10:37:54;;;;;;;2.23;1.30;;;9.40;99.90;;;9.87;100.00;97425.69;5057498;28;20469;-79
2022/12/29 10:40:33;;;;;;;8.07;1.50;;;9.50;99.90;;;9.91;100.00;97439.16;5051976;28;20564;-79
2022/12/29 10:43:22;;;;;;;3.43;1.47;;;9.50;99.90;;;9.95;100.00;97427.31;5055352;28;20491;-78
2022/12/29 10:45:55;;;;;;;1.53;1.13;;;9.60;99.90;;;9.96;100.00;97449.84;5053007;28;20488;-78
2022/12/29 10:48:30;;;;;;;1.93;1.03;;;9.60;99.90;;;9.99;100.00;97431.16;5053587;28;20461;-78
2022/12/29 10:51:05;;;;;;;5.27;1.57;;;9.60;99.90;;;10.00;100.00;97440.56;5051892;28;21073;-78
2022/12/29 10:53:46;;;;;;;4.17;1.20;;;9.70;99.90;;;10.02;100.00;97430.75;5051101;28;20461;-75
2022/12/29 10:56:28;;;;;;;2.47;1.80;;;9.70;99.90;;;10.07;100.00;97436.97;5051823;28;21068;-78
2022/12/29 10:59:07;;;;;;;1.40;1.07;;;9.70;99.90;;;10.09;100.00;97442.03;5053479;28;21060;-78
2022/12/29 11:01:49;;;;;;;2.80;1.33;;;9.70;99.90;;;10.13;100.00;97430.94;5046055;28;20464;-78
2022/12/29 11:04:41;;;;;;;1.03;0.93;;;9.80;99.90;;;10.15;100.00;97424.75;5052063;28;20457;-78
2022/12/29 11:07:12;;;;;;;2.77;1.40;;;9.80;99.90;;;10.17;100.00;97431.38;5052021;28;20525;-77
2022/12/29 11:09:48;;;;;;;1.70;1.00;;;9.80;99.90;;;10.20;100.00;97423.19;5050347;28;20514;-78
2022/12/29 11:12:25;;;;;;;1.27;1.00;;;9.80;99.90;;;10.22;100.00;97423.78;5049854;28;20464;-78
2022/12/29 11:15:15;;;;;;;2.03;1.43;;;9.80;99.90;;;10.24;100.00;97426.97;5053381;28;20515;-78
2022/12/29 11:17:49;;;;;;;2.00;1.20;;;9.90;99.90;;;10.28;100.00;97430.81;5052612;28;20472;-78
2022/12/29 11:20:33;;;;;;;1.93;1.00;;;10.00;99.90;;;10.28;100.00;97428.19;5055403;28;20996;-78
2022/12/29 11:23:05;;;;;;;11.10;1.27;;;9.90;99.90;;;10.27;100.00;97431.03;5050742;28;20515;-78
2022/12/29 11:25:35;;;;;;;4.40;1.30;;;9.90;99.90;;;10.26;100.00;97432.81;5053296;28;20503;-78
2022/12/29 11:28:17;;;;;;;1.67;1.10;;;9.90;99.90;;;10.30;100.00;97433.22;5050468;28;20489;-78